createdAt,value
2023-04-28T00:00:58.699Z,88.29
2023-04-28T00:03:25.545Z,87.85
2023-04-28T00:05:53.002Z,86.93
2023-04-28T00:08:19.671Z,87.67
2023-04-28T00:10:46.083Z,86.28
2023-04-28T00:13:12.520Z,85.94
2023-04-28T00:15:38.943Z,86.30
2023-04-28T00:18:05.390Z,86.54
2023-04-28T00:20:31.796Z,85.50
2023-04-28T00:22:58.190Z,85.01
2023-04-28T00:25:24.612Z,84.09
2023-04-28T00:27:50.984Z,84.62
2023-04-28T00:30:17.721Z,85.94
2023-04-28T00:32:44.268Z,86.53
2023-04-28T00:35:10.722Z,86.84
2023-04-28T00:37:37.461Z,86.23
2023-04-28T00:40:04.097Z,86.98
2023-04-28T00:42:30.631Z,87.58
2023-04-28T00:44:57.372Z,87.95
2023-04-28T00:47:23.867Z,87.26
2023-04-28T00:49:50.416Z,88.09
2023-04-28T00:52:16.895Z,86.52
2023-04-28T00:54:43.557Z,86.57
2023-04-28T00:57:10.197Z,86.54
2023-04-28T00:59:36.647Z,87.48
2023-04-28T01:02:03.394Z,87.99
2023-04-28T01:04:30.028Z,88.11
2023-04-28T01:06:56.731Z,87.92
2023-04-28T01:09:23.354Z,87.57
2023-04-28T01:11:49.769Z,87.91
2023-04-28T01:14:16.437Z,88.12
2023-04-28T01:16:43.102Z,88.18
2023-04-28T01:19:13.295Z,88.38
2023-04-28T01:21:39.679Z,88.81
2023-04-28T01:24:06.286Z,88.52
2023-04-28T01:26:32.876Z,88.14
2023-04-28T01:28:59.288Z,89.20
2023-04-28T01:31:25.785Z,88.25
2023-04-28T01:33:52.227Z,88.60
2023-04-28T01:36:18.984Z,88.91
2023-04-28T01:38:45.430Z,89.78
2023-04-28T01:41:11.791Z,90.17
2023-04-28T01:43:38.196Z,89.84
2023-04-28T01:46:04.635Z,90.43
2023-04-28T01:48:31.117Z,90.58
2023-04-28T01:50:57.500Z,90.78
2023-04-28T01:53:24.014Z,88.96
2023-04-28T01:55:50.702Z,88.74
2023-04-28T01:58:17.142Z,88.78
2023-04-28T02:00:43.531Z,90.54
2023-04-28T02:03:10.073Z,89.58
2023-04-28T02:05:36.940Z,89.14
2023-04-28T02:08:03.454Z,89.81
2023-04-28T02:10:29.853Z,89.62
2023-04-28T02:12:56.347Z,89.50
2023-04-28T02:15:22.724Z,89.98
2023-04-28T02:17:49.259Z,90.23
2023-04-28T02:20:15.818Z,89.20
2023-04-28T02:22:42.238Z,90.11
2023-04-28T02:25:08.869Z,90.83
2023-04-28T02:27:35.628Z,91.46
2023-04-28T02:30:02.882Z,91.30
2023-04-28T02:32:29.651Z,92.21
2023-04-28T02:34:56.186Z,91.47
2023-04-28T02:37:22.612Z,91.24
2023-04-28T02:39:48.970Z,91.45
2023-04-28T02:42:15.481Z,91.52
2023-04-28T02:44:42.014Z,91.08
2023-04-28T02:47:08.452Z,92.26
2023-04-28T02:49:34.970Z,91.63
2023-04-28T02:52:01.528Z,91.37
2023-04-28T02:54:27.956Z,91.41
2023-04-28T02:56:57.700Z,90.44
2023-04-28T02:59:24.316Z,90.63
2023-04-28T03:01:50.865Z,90.91
2023-04-28T03:04:17.596Z,91.16
2023-04-28T03:06:44.366Z,90.78
2023-04-28T03:09:10.815Z,89.76
2023-04-28T03:11:37.270Z,89.63
2023-04-28T03:14:03.713Z,89.18
2023-04-28T03:16:30.304Z,89.51
2023-04-28T03:18:56.730Z,90.03
2023-04-28T03:21:23.147Z,90.20
2023-04-28T03:23:49.489Z,90.69
2023-04-28T03:26:16.047Z,92.31
2023-04-28T03:28:42.640Z,91.18
2023-04-28T03:31:09.147Z,91.90
2023-04-28T03:33:35.580Z,92.42
2023-04-28T03:36:02.309Z,92.13
2023-04-28T03:38:29.178Z,90.98
2023-04-28T03:40:55.685Z,90.95
2023-04-28T03:43:22.318Z,91.24
2023-04-28T03:45:48.800Z,91.30
2023-04-28T03:48:15.368Z,90.77
2023-04-28T03:50:41.942Z,91.61
2023-04-28T03:53:09.047Z,92.73
2023-04-28T03:55:35.529Z,91.76
2023-04-28T03:58:01.907Z,91.43
2023-04-28T04:00:28.360Z,91.05
2023-04-28T04:02:55.294Z,91.61
2023-04-28T04:05:23.023Z,92.50
2023-04-28T04:07:49.559Z,91.84
2023-04-28T04:10:16.019Z,91.62
2023-04-28T04:12:42.392Z,91.92
2023-04-28T04:15:10.005Z,92.58
2023-04-28T04:17:36.534Z,92.07
2023-04-28T04:20:03.067Z,92.40
2023-04-28T04:22:29.507Z,92.81
2023-04-28T04:24:55.968Z,93.28
2023-04-28T04:27:22.439Z,92.70
2023-04-28T04:29:48.911Z,91.92
2023-04-28T04:32:15.273Z,91.38
2023-04-28T04:34:41.666Z,92.94
2023-04-28T04:37:08.973Z,92.58
2023-04-28T04:39:35.372Z,92.96
2023-04-28T04:42:13.373Z,92.88
2023-04-28T04:44:43.750Z,91.22
2023-04-28T04:47:10.158Z,92.35
2023-04-28T04:49:36.679Z,92.73
2023-04-28T04:52:03.141Z,92.65
2023-04-28T04:54:29.627Z,92.77
2023-04-28T04:56:57.783Z,91.62
2023-04-28T04:59:24.248Z,91.74
2023-04-28T05:01:50.912Z,89.31
2023-04-28T05:04:17.839Z,90.36
2023-04-28T05:06:44.641Z,89.24
2023-04-28T05:09:11.091Z,88.74
2023-04-28T05:11:37.899Z,84.45
2023-04-28T05:14:04.404Z,83.39
2023-04-28T05:16:30.966Z,84.84
2023-04-28T05:18:57.392Z,85.29
2023-04-28T05:21:23.905Z,84.57
2023-04-28T05:23:50.380Z,84.74
2023-04-28T05:26:16.778Z,85.45
2023-04-28T05:28:43.134Z,86.22
2023-04-28T05:31:09.669Z,84.92
2023-04-28T05:33:36.043Z,84.71
2023-04-28T05:36:02.430Z,83.35
2023-04-28T05:38:28.864Z,81.76
2023-04-28T05:40:55.472Z,80.03
2023-04-28T05:43:21.844Z,80.11
2023-04-28T05:45:48.375Z,79.00
2023-04-28T05:48:14.774Z,78.64
2023-04-28T05:50:41.188Z,78.56
2023-04-28T05:53:07.662Z,80.79
2023-04-28T05:55:34.085Z,80.44
2023-04-28T05:58:00.672Z,81.02
2023-04-28T06:00:27.155Z,80.68
2023-04-28T06:02:53.918Z,81.22
2023-04-28T06:05:21.124Z,78.40
2023-04-28T06:07:49.979Z,77.77
2023-04-28T06:10:16.708Z,79.80
2023-04-28T06:12:43.157Z,81.14
2023-04-28T06:15:09.841Z,81.49
2023-04-28T06:17:36.239Z,82.12
2023-04-28T06:20:02.725Z,82.01
2023-04-28T06:22:29.134Z,82.40
2023-04-28T06:24:55.543Z,81.42
2023-04-28T06:27:21.896Z,81.59
2023-04-28T06:29:48.654Z,80.41
2023-04-28T06:32:15.156Z,79.56
2023-04-28T06:34:42.061Z,79.83
2023-04-28T06:37:08.515Z,78.71
2023-04-28T06:39:34.887Z,77.77
2023-04-28T06:42:01.317Z,79.62
2023-04-28T06:44:28.063Z,79.42
2023-04-28T06:46:54.541Z,78.80
2023-04-28T06:49:21.063Z,78.29
2023-04-28T06:51:47.558Z,78.59
2023-04-28T06:54:14.020Z,77.16
2023-04-28T06:56:40.830Z,76.23
2023-04-28T06:59:07.370Z,76.10
2023-04-28T07:01:33.734Z,76.11
2023-04-28T07:04:00.349Z,76.65
2023-04-28T07:06:26.949Z,77.24
2023-04-28T07:08:53.504Z,77.29
2023-04-28T07:11:19.930Z,78.34
2023-04-28T07:13:46.792Z,79.39
2023-04-28T07:16:13.300Z,78.81
2023-04-28T07:18:40.064Z,81.37
2023-04-28T07:21:06.720Z,80.57
2023-04-28T07:23:33.083Z,81.81
2023-04-28T07:25:59.620Z,84.35
2023-04-28T07:28:26.317Z,85.12
2023-04-28T07:30:52.799Z,86.05
2023-04-28T07:33:19.324Z,84.80
2023-04-28T07:35:45.804Z,86.50
2023-04-28T07:38:12.290Z,88.41
2023-04-28T07:40:38.663Z,90.02
2023-04-28T07:43:05.124Z,89.26
2023-04-28T07:45:31.603Z,89.07
2023-04-28T07:47:58.301Z,90.06
2023-04-28T07:50:25.362Z,89.24
2023-04-28T07:52:51.819Z,88.67
2023-04-28T07:55:18.588Z,90.69
2023-04-28T07:57:45.066Z,90.23
2023-04-28T08:00:11.711Z,90.21
2023-04-28T08:02:38.300Z,90.97
2023-04-28T08:05:05.228Z,91.26
2023-04-28T08:07:31.671Z,91.10
2023-04-28T08:09:58.116Z,92.77
2023-04-28T08:12:24.619Z,92.27
2023-04-28T08:14:51.028Z,91.55
2023-04-28T08:17:17.634Z,92.31
2023-04-28T08:19:44.160Z,93.07
2023-04-28T08:22:10.543Z,93.14
2023-04-28T08:24:36.927Z,93.66
2023-04-28T08:27:03.586Z,93.17
2023-04-28T08:29:30.387Z,92.94
2023-04-28T08:31:56.797Z,92.35
2023-04-28T08:34:23.417Z,92.73
2023-04-28T08:36:50.003Z,92.55
2023-04-28T08:39:16.518Z,93.64
2023-04-28T08:41:43.060Z,94.08
2023-04-28T08:44:09.586Z,94.23
2023-04-28T08:46:36.061Z,93.41
2023-04-28T08:49:02.654Z,93.67
2023-04-28T08:51:35.720Z,94.62
2023-04-28T08:56:34.822Z,95.32
2023-04-28T08:59:04.588Z,95.52
2023-04-28T09:01:31.426Z,96.28
2023-04-28T09:03:58.033Z,96.03
2023-04-28T09:06:24.468Z,95.40
2023-04-28T09:08:50.927Z,96.19
2023-04-28T09:11:17.542Z,96.23
2023-04-28T09:13:44.079Z,95.16
2023-04-28T09:16:10.727Z,95.57
2023-04-28T09:18:37.341Z,96.81
2023-04-28T09:21:04.323Z,97.95
2023-04-28T09:23:30.823Z,97.12
2023-04-28T09:25:58.795Z,96.80
2023-04-28T09:28:25.270Z,97.14
2023-04-28T09:30:51.689Z,97.21
2023-04-28T09:33:18.437Z,97.58
2023-04-28T09:35:44.972Z,96.94
2023-04-28T09:38:11.455Z,97.51
2023-04-28T09:40:53.380Z,98.32
2023-04-28T09:43:23.230Z,97.91
2023-04-28T09:45:49.714Z,97.89
2023-04-28T09:48:16.251Z,98.46
2023-04-28T09:50:42.725Z,98.18
2023-04-28T09:53:09.188Z,97.94
2023-04-28T09:55:35.673Z,98.99
2023-04-28T09:58:02.173Z,98.67
2023-04-28T10:00:28.684Z,97.63
2023-04-28T10:02:55.267Z,98.13
2023-04-28T10:05:22.095Z,98.04
2023-04-28T10:07:48.935Z,97.93
2023-04-28T10:10:15.606Z,97.56
2023-04-28T10:12:44.017Z,98.05
2023-04-28T10:15:10.762Z,98.93
2023-04-28T10:17:37.444Z,99.72
2023-04-28T10:20:04.086Z,99.69
2023-04-28T10:22:30.495Z,99.73
2023-04-28T10:24:56.880Z,99.63
2023-04-28T10:27:27.780Z,100.00
2023-04-28T10:29:54.205Z,100.00
2023-04-28T10:32:24.072Z,100.00
2023-04-28T10:34:50.610Z,99.66
2023-04-28T10:37:16.970Z,99.87
2023-04-28T10:40:03.343Z,100.00
2023-04-28T10:42:48.596Z,100.00
2023-04-28T10:45:15.137Z,100.00
2023-04-28T10:48:00.361Z,100.00
2023-04-28T10:50:38.526Z,100.00
2023-04-28T10:53:05.768Z,100.00
2023-04-28T10:55:35.292Z,100.00
2023-04-28T10:58:17.072Z,100.00
2023-04-28T11:00:44.104Z,100.00
2023-04-28T11:03:30.822Z,100.00
2023-04-28T11:06:17.832Z,100.00
2023-04-28T11:08:44.254Z,100.00
2023-04-28T11:11:13.580Z,100.00
2023-04-28T11:13:41.923Z,100.00
2023-04-28T11:16:09.308Z,100.00
2023-04-28T11:18:43.728Z,100.00
2023-04-28T11:21:10.511Z,100.00
2023-04-28T11:23:36.999Z,100.00
2023-04-28T11:26:03.605Z,100.00
2023-04-28T11:28:30.052Z,100.00
2023-04-28T11:31:16.792Z,100.00
2023-04-28T11:33:43.323Z,100.00
2023-04-28T11:36:14.622Z,100.00
2023-04-28T11:38:44.567Z,100.00
2023-04-28T11:41:10.999Z,100.00
2023-04-28T11:43:46.873Z,100.00
2023-04-28T11:46:18.058Z,100.00
2023-04-28T11:48:44.601Z,100.00
2023-04-28T11:51:11.130Z,100.00
2023-04-28T11:53:41.446Z,100.00
2023-04-28T11:56:07.959Z,100.00
2023-04-28T11:58:34.658Z,100.00
2023-04-28T12:01:10.780Z,100.00
2023-04-28T12:03:46.416Z,100.00
2023-04-28T12:06:16.724Z,100.00
2023-04-28T12:08:43.230Z,100.00
2023-04-28T12:11:10.077Z,100.00
2023-04-28T12:13:37.168Z,100.00
2023-04-28T12:16:04.147Z,100.00
2023-04-28T12:18:30.603Z,100.00
2023-04-28T12:20:57.173Z,100.00
2023-04-28T12:23:30.592Z,100.00
2023-04-28T12:25:57.106Z,100.00
2023-04-28T12:28:23.565Z,100.00
2023-04-28T12:30:50.652Z,100.00
2023-04-28T12:33:23.781Z,100.00
2023-04-28T12:35:50.250Z,100.00
2023-04-28T12:38:16.703Z,100.00
2023-04-28T12:40:43.380Z,100.00
2023-04-28T12:43:09.870Z,100.00
2023-04-28T12:45:38.690Z,100.00
2023-04-28T12:48:05.560Z,100.00
2023-04-28T12:50:32.033Z,100.00
2023-04-28T12:52:58.659Z,100.00
2023-04-28T12:55:25.381Z,100.00
2023-04-28T12:57:51.797Z,100.00
2023-04-28T13:00:18.338Z,100.00
2023-04-28T13:02:44.960Z,100.00
2023-04-28T13:05:11.554Z,100.00
2023-04-28T13:07:37.970Z,100.00
2023-04-28T13:10:04.548Z,100.00
2023-04-28T13:12:31.028Z,100.00
2023-04-28T13:14:57.475Z,100.00
2023-04-28T13:17:23.962Z,100.00
2023-04-28T13:19:50.503Z,100.00
2023-04-28T13:22:17.013Z,100.00
2023-04-28T13:24:43.669Z,100.00
2023-04-28T13:27:10.543Z,100.00
2023-04-28T13:29:37.201Z,100.00
2023-04-28T13:32:03.736Z,100.00
2023-04-28T13:34:30.217Z,100.00
2023-04-28T13:36:56.599Z,100.00
2023-04-28T13:39:23.255Z,100.00
2023-04-28T13:41:49.916Z,100.00
2023-04-28T13:44:16.403Z,100.00
2023-04-28T13:46:43.056Z,100.00
2023-04-28T13:49:09.678Z,100.00
2023-04-28T13:51:36.049Z,100.00
2023-04-28T13:54:02.579Z,100.00
2023-04-28T13:56:29.925Z,100.00
2023-04-28T13:58:56.331Z,100.00
2023-04-28T14:01:22.827Z,100.00
2023-04-28T14:03:49.442Z,100.00
2023-04-28T14:06:15.942Z,100.00
2023-04-28T14:08:42.384Z,100.00
2023-04-28T14:11:08.736Z,100.00
2023-04-28T14:13:35.386Z,100.00
2023-04-28T14:16:01.877Z,100.00
2023-04-28T14:18:28.407Z,100.00
2023-04-28T14:20:54.977Z,100.00
2023-04-28T14:23:21.885Z,100.00
2023-04-28T14:25:48.425Z,100.00
2023-04-28T14:28:14.905Z,100.00
2023-04-28T14:30:41.411Z,100.00
2023-04-28T14:33:07.922Z,100.00
2023-04-28T14:35:34.422Z,100.00
2023-04-28T14:38:01.115Z,100.00
2023-04-28T14:40:27.545Z,100.00
2023-04-28T14:42:53.981Z,100.00
2023-04-28T14:45:20.516Z,100.00
2023-04-28T14:47:47.011Z,100.00
2023-04-28T14:50:14.251Z,100.00
2023-04-28T14:52:40.960Z,100.00
2023-04-28T14:55:07.506Z,100.00
2023-04-28T14:57:33.939Z,100.00
2023-04-28T15:00:00.446Z,100.00
2023-04-28T15:02:27.974Z,100.00
2023-04-28T15:04:57.318Z,100.00
2023-04-28T15:07:24.356Z,100.00
2023-04-28T15:09:50.772Z,100.00
2023-04-28T15:12:17.236Z,100.00
2023-04-28T15:14:43.646Z,100.00
2023-04-28T15:17:10.326Z,100.00
2023-04-28T15:19:36.723Z,100.00
2023-04-28T15:22:03.250Z,100.00
2023-04-28T15:24:29.634Z,100.00
2023-04-28T15:26:55.997Z,100.00
2023-04-28T15:29:22.643Z,100.00
2023-04-28T15:31:49.210Z,100.00
2023-04-28T15:34:15.671Z,100.00
2023-04-28T15:36:42.678Z,100.00
2023-04-28T15:39:09.164Z,100.00
2023-04-28T15:41:35.570Z,100.00
2023-04-28T15:44:02.206Z,100.00
2023-04-28T15:46:28.829Z,100.00
2023-04-28T15:48:55.192Z,100.00
2023-04-28T15:51:21.958Z,100.00
2023-04-28T15:53:48.363Z,100.00
2023-04-28T15:56:15.083Z,100.00
2023-04-28T15:58:42.377Z,100.00
2023-04-28T16:01:08.928Z,100.00
2023-04-28T16:03:35.743Z,100.00
2023-04-28T16:06:02.466Z,100.00
2023-04-28T16:08:28.904Z,100.00
2023-04-28T16:10:55.287Z,100.00
2023-04-28T16:13:21.754Z,100.00
2023-04-28T16:15:48.115Z,100.00
2023-04-28T16:18:14.520Z,100.00
2023-04-28T16:20:40.979Z,100.00
2023-04-28T16:23:07.526Z,100.00
2023-04-28T16:25:33.994Z,100.00
2023-04-28T16:28:00.474Z,100.00
2023-04-28T16:30:27.012Z,100.00
2023-04-28T16:32:53.431Z,100.00
2023-04-28T16:35:19.900Z,100.00
2023-04-28T16:37:46.524Z,100.00
2023-04-28T16:40:13.028Z,100.00
2023-04-28T16:42:39.646Z,100.00
2023-04-28T16:45:06.369Z,100.00
2023-04-28T16:47:32.928Z,100.00
2023-04-28T16:49:59.553Z,100.00
2023-04-28T16:52:26.106Z,100.00
2023-04-28T16:54:52.524Z,100.00
2023-04-28T16:57:18.978Z,100.00
2023-04-28T16:59:45.421Z,100.00
2023-04-28T17:02:11.929Z,100.00
2023-04-28T17:04:38.841Z,100.00
2023-04-28T17:07:05.585Z,100.00
2023-04-28T17:09:31.993Z,100.00
2023-04-28T17:11:58.476Z,100.00
2023-04-28T17:14:24.875Z,100.00
2023-04-28T17:16:51.267Z,100.00
2023-04-28T17:19:17.726Z,100.00
2023-04-28T17:21:44.214Z,100.00
2023-04-28T17:24:10.898Z,100.00
2023-04-28T17:26:37.744Z,100.00
2023-04-28T17:29:04.163Z,100.00
2023-04-28T17:31:30.593Z,100.00
2023-04-28T17:33:57.296Z,100.00
2023-04-28T17:36:23.792Z,100.00
2023-04-28T17:38:50.256Z,100.00
2023-04-28T17:41:16.727Z,100.00
2023-04-28T17:43:43.966Z,100.00
2023-04-28T17:46:10.470Z,100.00
2023-04-28T17:48:37.608Z,100.00
2023-04-28T17:51:04.024Z,100.00
2023-04-28T17:53:30.470Z,100.00
2023-04-28T17:55:56.845Z,100.00
2023-04-28T17:58:23.304Z,100.00
2023-04-28T18:00:50.234Z,100.00
2023-04-28T18:03:16.800Z,100.00
2023-04-28T18:05:43.318Z,100.00
2023-04-28T18:08:09.721Z,100.00
2023-04-28T18:10:36.711Z,100.00
2023-04-28T18:13:03.641Z,100.00
2023-04-28T18:15:30.047Z,100.00
2023-04-28T18:17:56.622Z,100.00
2023-04-28T18:20:23.240Z,100.00
2023-04-28T18:22:49.672Z,100.00
2023-04-28T18:25:16.150Z,100.00
2023-04-28T18:27:42.821Z,100.00
2023-04-28T18:30:09.781Z,100.00
2023-04-28T18:32:36.381Z,100.00
2023-04-28T18:35:02.951Z,100.00
2023-04-28T18:37:29.391Z,100.00
2023-04-28T18:39:56.662Z,100.00
2023-04-28T18:42:23.304Z,100.00
2023-04-28T18:44:54.541Z,100.00
2023-04-28T18:47:21.079Z,100.00
2023-04-28T18:49:47.682Z,100.00
2023-04-28T18:52:14.228Z,100.00
2023-04-28T18:54:40.845Z,100.00
2023-04-28T18:57:07.264Z,100.00
2023-04-28T18:59:33.641Z,100.00
2023-04-28T19:02:01.765Z,100.00
2023-04-28T19:04:28.295Z,100.00
2023-04-28T19:06:54.852Z,100.00
2023-04-28T19:09:21.376Z,100.00
2023-04-28T19:11:47.801Z,100.00
2023-04-28T19:14:14.264Z,100.00
2023-04-28T19:16:40.839Z,100.00
2023-04-28T19:19:09.578Z,100.00
2023-04-28T19:21:42.749Z,100.00
2023-04-28T19:24:09.108Z,100.00
2023-04-28T19:26:35.557Z,100.00
2023-04-28T19:29:01.986Z,100.00
2023-04-28T19:31:28.481Z,100.00
2023-04-28T19:33:54.984Z,100.00
2023-04-28T19:36:21.776Z,100.00
2023-04-28T19:38:48.133Z,100.00
2023-04-28T19:41:14.494Z,100.00
2023-04-28T19:43:40.967Z,100.00
2023-04-28T19:46:07.438Z,100.00
2023-04-28T19:48:33.968Z,100.00
2023-04-28T19:51:00.457Z,100.00
2023-04-28T19:53:26.903Z,100.00
2023-04-28T19:55:53.323Z,100.00
2023-04-28T19:58:19.807Z,100.00
2023-04-28T20:00:46.262Z,100.00
2023-04-28T20:03:12.752Z,100.00
2023-04-28T20:05:39.480Z,100.00
2023-04-28T20:08:05.947Z,100.00
2023-04-28T20:10:32.410Z,100.00
2023-04-28T20:12:58.886Z,100.00
2023-04-28T20:15:25.350Z,100.00
2023-04-28T20:17:51.846Z,100.00
2023-04-28T20:20:18.311Z,100.00
2023-04-28T20:22:44.735Z,100.00
2023-04-28T20:25:11.642Z,100.00
2023-04-28T20:27:38.201Z,100.00
2023-04-28T20:30:04.925Z,100.00
2023-04-28T20:32:31.494Z,100.00
2023-04-28T20:34:58.012Z,100.00
2023-04-28T20:37:24.387Z,100.00
2023-04-28T20:39:50.906Z,100.00
2023-04-28T20:42:17.552Z,100.00
2023-04-28T20:44:44.062Z,100.00
2023-04-28T20:47:10.557Z,100.00
2023-04-28T20:49:37.143Z,100.00
2023-04-28T20:52:03.894Z,100.00
2023-04-28T20:54:30.363Z,100.00
2023-04-28T20:56:56.795Z,100.00
2023-04-28T20:59:23.490Z,100.00
2023-04-28T21:01:49.953Z,100.00
2023-04-28T21:04:16.627Z,100.00
2023-04-28T21:06:43.267Z,100.00
2023-04-28T21:09:09.652Z,100.00
2023-04-28T21:11:36.214Z,100.00
2023-04-28T21:14:02.610Z,100.00
2023-04-28T21:16:29.414Z,100.00
2023-04-28T21:18:55.920Z,100.00
2023-04-28T21:21:22.445Z,100.00
2023-04-28T21:23:48.937Z,100.00
2023-04-28T21:26:15.431Z,100.00
2023-04-28T21:28:41.910Z,100.00
2023-04-28T21:31:08.286Z,100.00
2023-04-28T21:33:34.870Z,100.00
2023-04-28T21:36:05.145Z,100.00
2023-04-28T21:38:31.616Z,100.00
2023-04-28T21:40:58.092Z,100.00
2023-04-28T21:43:24.620Z,100.00
2023-04-28T21:45:51.138Z,100.00
2023-04-28T21:48:18.083Z,100.00
2023-04-28T21:50:44.646Z,100.00
2023-04-28T21:53:11.100Z,100.00
2023-04-28T21:55:37.550Z,100.00
2023-04-28T21:58:03.936Z,100.00
2023-04-28T22:00:30.718Z,100.00
2023-04-28T22:02:57.454Z,100.00
2023-04-28T22:05:24.043Z,100.00
2023-04-28T22:07:50.742Z,100.00
2023-04-28T22:10:17.235Z,100.00
2023-04-28T22:12:43.646Z,100.00
2023-04-28T22:15:10.306Z,100.00
2023-04-28T22:17:36.811Z,100.00
2023-04-28T22:20:03.667Z,100.00
2023-04-28T22:22:30.147Z,100.00
2023-04-28T22:24:56.706Z,100.00
2023-04-28T22:27:23.180Z,100.00
2023-04-28T22:29:49.731Z,100.00
2023-04-28T22:32:16.371Z,100.00
2023-04-28T22:34:42.843Z,100.00
2023-04-28T22:37:09.259Z,100.00
2023-04-28T22:39:35.713Z,100.00
2023-04-28T22:42:02.198Z,100.00
2023-04-28T22:44:28.642Z,100.00
2023-04-28T22:46:55.285Z,100.00
2023-04-28T22:49:21.822Z,100.00
2023-04-28T22:51:48.294Z,100.00
2023-04-28T22:54:14.826Z,100.00
2023-04-28T22:56:41.217Z,100.00
2023-04-28T22:59:07.661Z,100.00
2023-04-28T23:01:34.156Z,100.00
2023-04-28T23:04:00.765Z,100.00
2023-04-28T23:06:27.269Z,100.00
2023-04-28T23:08:53.824Z,100.00
2023-04-28T23:11:20.542Z,100.00
2023-04-28T23:13:46.947Z,100.00
2023-04-28T23:16:13.477Z,100.00
2023-04-28T23:18:39.906Z,100.00
2023-04-28T23:21:06.292Z,100.00
2023-04-28T23:23:32.783Z,100.00
2023-04-28T23:25:59.192Z,100.00
2023-04-28T23:28:25.761Z,100.00
2023-04-28T23:30:52.311Z,100.00
2023-04-28T23:33:19.153Z,100.00
2023-04-28T23:35:45.673Z,100.00
2023-04-28T23:38:12.172Z,100.00
2023-04-28T23:40:38.676Z,100.00
2023-04-28T23:43:05.310Z,100.00
2023-04-28T23:45:31.840Z,100.00
2023-04-28T23:47:58.397Z,100.00
2023-04-28T23:50:24.932Z,100.00
2023-04-28T23:52:51.475Z,100.00
2023-04-28T23:55:17.872Z,100.00
2023-04-28T23:57:44.269Z,100.00
